createdAt,value
2018-06-23T00:00:12.561Z,0
2018-06-23T00:01:21.417Z,0
2018-06-23T00:02:30.272Z,0
2018-06-23T00:03:39.684Z,0
2018-06-23T00:04:48.643Z,0
2018-06-23T00:05:57.780Z,0
2018-06-23T00:07:07.186Z,0
2018-06-23T00:08:16.046Z,0
2018-06-23T00:09:24.912Z,0
2018-06-23T00:10:33.974Z,0
2018-06-23T00:11:43.106Z,0
2018-06-23T00:12:51.965Z,0
2018-06-23T00:14:01.104Z,0
2018-06-23T00:15:09.962Z,0
2018-06-23T00:16:18.820Z,0
2018-06-23T00:17:27.675Z,0
2018-06-23T00:18:36.824Z,0
2018-06-23T00:19:45.676Z,0
2018-06-23T00:20:54.816Z,0
2018-06-23T00:22:04.022Z,0
2018-06-23T00:23:12.875Z,0
2018-06-23T00:24:22.061Z,0
2018-06-23T00:25:30.917Z,0
2018-06-23T00:26:39.775Z,0
2018-06-23T00:27:49.265Z,0
2018-06-23T00:28:58.124Z,0
2018-06-23T00:30:07.264Z,0
2018-06-23T00:31:16.397Z,0
2018-06-23T00:32:25.254Z,0
2018-06-23T00:33:34.162Z,0
2018-06-23T00:34:43.294Z,0
2018-06-23T00:35:52.152Z,0
2018-06-23T00:37:01.288Z,0
2018-06-23T00:38:10.424Z,0
2018-06-23T00:39:19.908Z,0
2018-06-23T00:40:28.767Z,0
2018-06-23T00:41:37.906Z,0
2018-06-23T00:42:47.083Z,0
2018-06-23T00:43:55.939Z,0
2018-06-23T00:45:04.944Z,0
2018-06-23T00:46:13.800Z,0
2018-06-23T00:47:22.935Z,0
2018-06-23T00:48:32.071Z,0
2018-06-23T00:49:40.924Z,0
2018-06-23T00:50:50.131Z,0
2018-06-23T00:51:58.991Z,0
2018-06-23T00:53:07.852Z,0
2018-06-23T00:54:16.988Z,0
2018-06-23T00:55:25.847Z,0
2018-06-23T00:56:35.056Z,0
2018-06-23T00:57:43.912Z,0
2018-06-23T00:58:53.052Z,0
2018-06-23T01:00:01.914Z,0
2018-06-23T01:01:10.766Z,0
2018-06-23T01:02:19.825Z,0
2018-06-23T01:03:28.957Z,0
2018-06-23T01:04:37.812Z,0
2018-06-23T01:05:46.670Z,0
2018-06-23T01:06:55.527Z,0
2018-06-23T01:08:04.766Z,0
2018-06-23T01:09:13.624Z,0
2018-06-23T01:10:22.766Z,0
2018-06-23T01:11:31.676Z,0
2018-06-23T01:12:40.528Z,0
2018-06-23T01:13:49.538Z,0
2018-06-23T01:14:58.392Z,0
2018-06-23T01:16:07.249Z,0
2018-06-23T01:17:16.113Z,0
2018-06-23T01:18:24.972Z,0
2018-06-23T01:19:34.161Z,0
2018-06-23T01:20:43.022Z,0
2018-06-23T01:21:51.878Z,0
2018-06-23T01:23:00.736Z,0
2018-06-23T01:24:09.870Z,0
2018-06-23T01:25:19.077Z,0
2018-06-23T01:26:27.935Z,0
2018-06-23T01:27:43.079Z,0
2018-06-23T01:28:51.937Z,0
2018-06-23T01:30:00.794Z,0
2018-06-23T01:31:09.701Z,0
2018-06-23T01:32:18.555Z,0
2018-06-23T01:33:27.690Z,0
2018-06-23T01:34:36.546Z,0
2018-06-23T01:35:45.411Z,0
2018-06-23T01:36:54.696Z,0
2018-06-23T01:38:03.555Z,0
2018-06-23T01:39:12.411Z,0
2018-06-23T01:40:21.270Z,0
2018-06-23T01:41:30.406Z,0
2018-06-23T01:42:39.543Z,0
2018-06-23T01:43:48.964Z,0
2018-06-23T01:44:57.823Z,0
2018-06-23T01:46:06.957Z,0
2018-06-23T01:47:15.819Z,0
2018-06-23T01:48:25.029Z,0
2018-06-23T01:49:34.173Z,0
2018-06-23T01:50:43.025Z,0
2018-06-23T01:51:52.439Z,0
2018-06-23T01:53:01.300Z,0
2018-06-23T01:54:10.300Z,0
2018-06-23T01:55:19.159Z,0
2018-06-23T01:56:28.023Z,0
2018-06-23T01:57:37.158Z,0
2018-06-23T01:58:46.016Z,0
2018-06-23T01:59:55.300Z,0
2018-06-23T02:01:04.732Z,0
2018-06-23T02:02:13.590Z,0
2018-06-23T02:03:22.445Z,0
2018-06-23T02:04:31.304Z,0
2018-06-23T02:05:40.260Z,0
2018-06-23T02:06:49.118Z,0
2018-06-23T02:07:57.975Z,0
2018-06-23T02:09:06.833Z,0
2018-06-23T02:10:15.688Z,0
2018-06-23T02:11:24.549Z,0
2018-06-23T02:12:33.408Z,0
2018-06-23T02:13:42.541Z,0
2018-06-23T02:14:51.405Z,0
2018-06-23T02:16:00.264Z,0
2018-06-23T02:17:09.170Z,0
2018-06-23T02:18:18.127Z,0
2018-06-23T02:19:26.982Z,0
2018-06-23T02:20:35.836Z,0
2018-06-23T02:21:44.692Z,0
2018-06-23T02:22:53.877Z,0
2018-06-23T02:24:02.734Z,4
2018-06-23T02:25:11.589Z,0
2018-06-23T02:26:20.443Z,0
2018-06-23T02:27:29.576Z,0
2018-06-23T02:28:38.584Z,0
2018-06-23T02:29:47.443Z,4
2018-06-23T02:30:56.335Z,4
2018-06-23T02:32:05.432Z,4
2018-06-23T02:33:14.592Z,4
2018-06-23T02:34:24.003Z,4
2018-06-23T02:35:33.415Z,8
2018-06-23T02:36:42.549Z,8
2018-06-23T02:37:51.696Z,12
2018-06-23T02:39:00.559Z,12
2018-06-23T02:40:09.744Z,12
2018-06-23T02:41:18.880Z,16
2018-06-23T02:42:28.291Z,16
2018-06-23T02:43:37.431Z,16
2018-06-23T02:44:46.287Z,20
2018-06-23T02:45:55.477Z,24
2018-06-23T02:47:04.893Z,28
2018-06-23T02:48:14.042Z,32
2018-06-23T02:49:22.889Z,36
2018-06-23T02:50:32.022Z,48
2018-06-23T02:51:41.434Z,48
2018-06-23T02:52:50.568Z,52
2018-06-23T02:53:59.425Z,48
2018-06-23T02:55:09.392Z,48
2018-06-23T02:56:18.349Z,48
2018-06-23T02:57:27.584Z,48
2018-06-23T02:58:36.440Z,40
2018-06-23T02:59:45.587Z,44
2018-06-23T03:00:54.998Z,52
2018-06-23T03:02:04.133Z,64
2018-06-23T03:03:13.692Z,80
2018-06-23T03:04:22.552Z,84
2018-06-23T03:05:31.687Z,76
2018-06-23T03:06:40.821Z,80
2018-06-23T03:07:49.680Z,76
2018-06-23T03:08:58.539Z,60
2018-06-23T03:10:07.399Z,76
2018-06-23T03:11:16.541Z,100
2018-06-23T03:12:26.223Z,92
2018-06-23T03:13:35.356Z,92
2018-06-23T03:14:44.221Z,88
2018-06-23T03:15:53.645Z,92
2018-06-23T03:17:03.061Z,108
2018-06-23T03:18:12.205Z,144
2018-06-23T03:19:21.337Z,132
2018-06-23T03:20:30.396Z,128
2018-06-23T03:21:39.251Z,136
2018-06-23T03:22:48.107Z,120
2018-06-23T03:23:56.970Z,144
2018-06-23T03:25:05.827Z,144
2018-06-23T03:26:14.836Z,200
2018-06-23T03:27:23.693Z,212
2018-06-23T03:28:32.550Z,228
2018-06-23T03:29:41.407Z,224
2018-06-23T03:30:50.547Z,308
2018-06-23T03:32:00.241Z,308
2018-06-23T03:33:09.379Z,336
2018-06-23T03:34:18.235Z,364
2018-06-23T03:35:27.094Z,428
2018-06-23T03:36:36.229Z,424
2018-06-23T03:37:45.436Z,380
2018-06-23T03:38:54.295Z,368
2018-06-23T03:40:03.154Z,472
2018-06-23T03:41:12.013Z,452
2018-06-23T03:42:20.870Z,480
2018-06-23T03:43:29.826Z,428
2018-06-23T03:44:38.683Z,344
2018-06-23T03:45:47.539Z,292
2018-06-23T03:46:56.398Z,244
2018-06-23T03:48:05.254Z,232
2018-06-23T03:49:14.263Z,320
2018-06-23T03:50:23.132Z,408
2018-06-23T03:51:31.985Z,348
2018-06-23T03:52:40.840Z,328
2018-06-23T03:53:49.979Z,344
2018-06-23T03:54:59.169Z,256
2018-06-23T03:56:08.303Z,240
2018-06-23T03:57:17.160Z,332
2018-06-23T03:58:26.018Z,372
2018-06-23T03:59:35.147Z,444
2018-06-23T04:00:44.611Z,436
2018-06-23T04:01:54.026Z,392
2018-06-23T04:03:02.882Z,512
2018-06-23T04:04:12.016Z,644
2018-06-23T04:05:20.872Z,652
2018-06-23T04:06:30.119Z,700
2018-06-23T04:07:39.253Z,772
2018-06-23T04:08:48.389Z,772
2018-06-23T04:09:57.249Z,844
2018-06-23T04:11:06.110Z,1092
2018-06-23T04:12:15.114Z,1124
2018-06-23T04:13:23.973Z,1212
2018-06-23T04:14:32.835Z,1244
2018-06-23T04:15:41.690Z,1256
2018-06-23T04:16:50.862Z,1228
2018-06-23T04:17:59.704Z,1120
2018-06-23T04:19:08.563Z,1144
2018-06-23T04:20:17.696Z,1116
2018-06-23T04:21:26.554Z,1200
2018-06-23T04:22:35.412Z,1028
2018-06-23T04:23:44.322Z,1192
2018-06-23T04:24:53.454Z,1240
2018-06-23T04:26:02.313Z,1500
2018-06-23T04:27:11.169Z,1504
2018-06-23T04:28:20.032Z,1592
2018-06-23T04:29:28.990Z,1728
2018-06-23T04:30:37.854Z,1864
2018-06-23T04:31:46.715Z,2100
2018-06-23T04:32:55.571Z,2356
2018-06-23T04:34:04.426Z,2440
2018-06-23T04:35:13.839Z,2224
2018-06-23T04:36:22.980Z,2080
2018-06-23T04:37:32.119Z,1984
2018-06-23T04:38:40.975Z,1964
2018-06-23T04:39:49.831Z,1724
2018-06-23T04:40:59.071Z,1976
2018-06-23T04:42:08.217Z,2148
2018-06-23T04:43:17.361Z,2088
2018-06-23T04:44:26.218Z,2284
2018-06-23T04:45:35.630Z,2292
2018-06-23T04:46:44.492Z,2288
2018-06-23T04:47:53.352Z,2268
2018-06-23T04:49:02.461Z,1964
2018-06-23T04:50:11.321Z,1620
2018-06-23T04:51:20.459Z,1964
2018-06-23T04:52:29.419Z,1420
2018-06-23T04:53:38.278Z,1304
2018-06-23T04:54:47.138Z,1428
2018-06-23T04:55:55.996Z,1676
2018-06-23T04:57:04.854Z,1588
2018-06-23T04:58:13.861Z,1504
2018-06-23T04:59:22.721Z,1744
2018-06-23T05:00:31.679Z,1916
2018-06-23T05:01:40.438Z,1748
2018-06-23T05:02:49.298Z,1592
2018-06-23T05:03:58.430Z,1356
2018-06-23T05:05:07.672Z,2040
2018-06-23T05:06:17.376Z,2128
2018-06-23T05:07:26.235Z,1716
2018-06-23T05:08:35.374Z,1228
2018-06-23T05:09:44.610Z,1420
2018-06-23T05:10:53.744Z,1036
2018-06-23T05:12:02.602Z,1156
2018-06-23T05:13:11.738Z,1104
2018-06-23T05:14:20.595Z,1496
2018-06-23T05:15:29.455Z,1452
2018-06-23T05:16:38.324Z,1220
2018-06-23T05:17:47.171Z,1044
2018-06-23T05:18:56.031Z,580
2018-06-23T05:20:04.890Z,604
2018-06-23T05:21:14.199Z,884
2018-06-23T05:22:23.062Z,840
2018-06-23T05:23:32.195Z,1020
2018-06-23T05:24:41.055Z,1084
2018-06-23T05:25:49.914Z,1692
2018-06-23T05:26:58.922Z,1180
2018-06-23T05:28:07.779Z,1020
2018-06-23T05:29:16.639Z,1124
2018-06-23T05:30:25.498Z,1088
2018-06-23T05:31:34.356Z,1316
2018-06-23T05:32:43.366Z,1012
2018-06-23T05:33:52.225Z,980
2018-06-23T05:35:01.083Z,796
2018-06-23T05:36:09.939Z,1060
2018-06-23T05:37:19.347Z,1000
2018-06-23T05:38:28.354Z,1644
2018-06-23T05:39:37.211Z,2624
2018-06-23T05:40:46.358Z,3336
2018-06-23T05:41:55.215Z,3592
2018-06-23T05:43:04.360Z,3716
2018-06-23T05:44:13.213Z,3764
2018-06-23T05:45:22.072Z,4104
2018-06-23T05:46:30.928Z,4720
2018-06-23T05:47:40.064Z,5460
2018-06-23T05:48:49.201Z,4748
2018-06-23T05:49:58.156Z,4756
2018-06-23T05:51:07.292Z,4896
2018-06-23T05:52:16.148Z,3844
2018-06-23T05:53:25.009Z,4212
2018-06-23T05:54:33.866Z,3652
2018-06-23T05:55:43.021Z,3856
2018-06-23T05:56:52.447Z,4688
2018-06-23T05:58:01.306Z,4732
2018-06-23T05:59:10.450Z,4948
2018-06-23T06:00:19.307Z,5052
2018-06-23T06:01:28.444Z,4316
2018-06-23T06:02:37.310Z,4704
2018-06-23T06:03:46.166Z,5300
2018-06-23T06:04:55.029Z,5808
2018-06-23T06:06:03.888Z,6632
2018-06-23T06:07:13.025Z,6784
2018-06-23T06:08:21.882Z,6764
2018-06-23T06:09:30.752Z,6316
2018-06-23T06:10:39.889Z,5788
2018-06-23T06:11:48.775Z,4916
2018-06-23T06:12:58.250Z,5048
2018-06-23T06:14:07.110Z,5160
2018-06-23T06:15:15.974Z,5776
2018-06-23T06:16:25.039Z,5004
2018-06-23T06:17:33.901Z,5020
2018-06-23T06:18:42.924Z,7208
2018-06-23T06:19:52.069Z,5480
2018-06-23T06:21:00.932Z,5500
2018-06-23T06:22:09.837Z,4532
2018-06-23T06:23:18.700Z,5020
2018-06-23T06:24:27.560Z,5360
2018-06-23T06:25:36.421Z,5176
2018-06-23T06:26:45.560Z,5080
2018-06-23T06:27:54.418Z,5116
2018-06-23T06:29:03.281Z,4900
2018-06-23T06:30:12.420Z,4448
2018-06-23T06:31:21.282Z,5368
2018-06-23T06:32:30.416Z,4624
2018-06-23T06:33:39.279Z,6764
2018-06-23T06:34:48.140Z,5404
2018-06-23T06:35:57.279Z,5432
2018-06-23T06:37:06.444Z,4928
2018-06-23T06:38:15.746Z,4832
2018-06-23T06:39:24.607Z,4796
2018-06-23T06:40:33.472Z,5208
2018-06-23T06:41:42.609Z,4108
2018-06-23T06:42:51.472Z,6156
2018-06-23T06:44:00.772Z,7400
2018-06-23T06:45:09.637Z,4472
2018-06-23T06:46:18.779Z,8004
2018-06-23T06:47:27.642Z,6476
2018-06-23T06:48:36.785Z,7552
2018-06-23T06:49:45.645Z,6492
2018-06-23T06:50:54.882Z,5592
2018-06-23T06:52:04.024Z,8876
2018-06-23T06:53:12.885Z,6260
2018-06-23T06:54:22.027Z,4128
2018-06-23T06:55:31.316Z,6192
2018-06-23T06:56:40.176Z,5316
2018-06-23T06:57:49.319Z,7592
2018-06-23T06:58:58.181Z,9356
2018-06-23T07:00:07.046Z,5984
2018-06-23T07:01:15.963Z,7940
2018-06-23T07:02:24.885Z,6316
2018-06-23T07:03:33.993Z,7996
2018-06-23T07:04:43.137Z,6044
2018-06-23T07:05:51.999Z,6488
2018-06-23T07:07:01.137Z,9076
2018-06-23T07:08:09.998Z,6164
2018-06-23T07:09:18.859Z,5456
2018-06-23T07:10:27.720Z,6984
2018-06-23T07:11:36.582Z,7376
2018-06-23T07:12:45.441Z,6180
2018-06-23T07:13:54.301Z,7648
2018-06-23T07:15:03.166Z,6708
2018-06-23T07:16:12.029Z,5792
2018-06-23T07:17:21.446Z,7108
2018-06-23T07:18:30.353Z,8396
2018-06-23T07:19:39.214Z,6596
2018-06-23T07:20:48.076Z,6096
2018-06-23T07:21:56.939Z,6404
2018-06-23T07:23:05.801Z,7440
2018-06-23T07:24:15.244Z,4116
2018-06-23T07:25:23.989Z,4340
2018-06-23T07:26:33.127Z,4036
2018-06-23T07:27:41.986Z,4560
2018-06-23T07:28:51.126Z,3840
2018-06-23T07:30:00.093Z,4460
2018-06-23T07:31:09.232Z,8124
2018-06-23T07:32:18.654Z,7792
2018-06-23T07:33:27.517Z,8364
2018-06-23T07:34:37.088Z,8892
2018-06-23T07:35:46.313Z,9248
2018-06-23T07:36:55.173Z,9288
2018-06-23T07:38:04.035Z,8324
2018-06-23T07:39:12.892Z,4944
2018-06-23T07:40:21.754Z,4588
2018-06-23T07:41:30.629Z,4040
2018-06-23T07:42:39.767Z,4580
2018-06-23T07:43:48.630Z,7244
2018-06-23T07:44:57.492Z,7804
2018-06-23T07:46:06.657Z,8240
2018-06-23T07:47:15.571Z,4264
2018-06-23T07:48:24.429Z,6144
2018-06-23T07:49:33.575Z,8756
2018-06-23T07:50:42.437Z,5984
2018-06-23T07:51:51.299Z,6416
2018-06-23T07:53:00.488Z,9484
2018-06-23T07:54:09.353Z,9584
2018-06-23T07:55:18.213Z,9940
2018-06-23T07:56:27.074Z,8360
2018-06-23T07:57:35.942Z,9468
2018-06-23T07:58:44.800Z,8752
2018-06-23T07:59:53.661Z,8964
2018-06-23T08:01:02.801Z,7116
2018-06-23T08:02:11.948Z,6532
2018-06-23T08:03:20.808Z,6888
2018-06-23T08:04:29.771Z,7292
2018-06-23T08:05:38.950Z,7700
2018-06-23T08:06:47.812Z,8844
2018-06-23T08:07:56.675Z,9352
2018-06-23T08:09:05.536Z,9688
2018-06-23T08:10:15.292Z,10348
2018-06-23T08:11:24.152Z,7100
2018-06-23T08:12:33.290Z,4876
2018-06-23T08:13:42.153Z,4188
2018-06-23T08:14:51.290Z,6068
2018-06-23T08:16:00.502Z,4004
2018-06-23T08:17:09.362Z,2708
2018-06-23T08:18:18.227Z,2544
2018-06-23T08:19:27.365Z,3112
2018-06-23T08:20:36.504Z,3492
2018-06-23T08:21:45.793Z,2668
2018-06-23T08:22:54.933Z,3440
2018-06-23T08:24:04.081Z,4984
2018-06-23T08:25:12.945Z,8144
2018-06-23T08:26:21.827Z,10676
2018-06-23T08:27:31.407Z,10124
2018-06-23T08:28:40.543Z,10004
2018-06-23T08:29:49.402Z,9776
2018-06-23T08:30:58.266Z,9296
2018-06-23T08:32:07.130Z,8740
2018-06-23T08:33:16.140Z,7072
2018-06-23T08:34:25.276Z,5548
2018-06-23T08:35:34.140Z,4012
2018-06-23T08:36:43.280Z,3672
2018-06-23T08:37:52.251Z,3760
2018-06-23T08:39:01.585Z,6584
2018-06-23T08:40:10.446Z,8804
2018-06-23T08:41:19.312Z,10652
2018-06-23T08:42:28.170Z,8804
2018-06-23T08:43:37.042Z,9680
2018-06-23T08:44:46.238Z,6284
2018-06-23T08:45:55.098Z,3912
2018-06-23T08:47:03.965Z,4524
2018-06-23T08:48:12.822Z,6240
2018-06-23T08:49:21.993Z,8308
2018-06-23T08:50:31.006Z,8760
2018-06-23T08:51:39.865Z,7768
2018-06-23T08:52:48.725Z,8428
2018-06-23T08:53:57.587Z,9600
2018-06-23T08:55:06.729Z,7416
2018-06-23T08:56:15.589Z,6628
2018-06-23T08:57:24.453Z,6652
2018-06-23T08:58:33.313Z,6128
2018-06-23T08:59:42.455Z,6468
2018-06-23T09:00:51.600Z,9580
2018-06-23T09:02:01.092Z,9084
2018-06-23T09:03:09.948Z,12876
2018-06-23T09:04:19.085Z,14460
2018-06-23T09:05:27.947Z,13792
2018-06-23T09:06:36.810Z,11792
2018-06-23T09:07:45.948Z,9676
2018-06-23T09:08:54.812Z,7688
2018-06-23T09:10:03.675Z,7112
2018-06-23T09:11:12.545Z,6820
2018-06-23T09:12:21.679Z,7312
2018-06-23T09:13:30.751Z,5864
2018-06-23T09:14:39.554Z,4184
2018-06-23T09:15:48.415Z,4000
2018-06-23T09:16:57.634Z,4000
2018-06-23T09:18:06.785Z,3524
2018-06-23T09:19:15.848Z,3172
2018-06-23T09:20:24.711Z,2908
2018-06-23T09:21:33.574Z,2840
2018-06-23T09:22:42.437Z,2876
2018-06-23T09:23:51.296Z,2868
2018-06-23T09:25:00.557Z,4636
2018-06-23T09:26:09.426Z,7664
2018-06-23T09:27:18.286Z,11964
2018-06-23T09:28:27.146Z,13332
2018-06-23T09:29:36.008Z,14452
2018-06-23T09:30:44.918Z,13656
2018-06-23T09:31:53.776Z,11024
2018-06-23T09:33:02.640Z,11504
2018-06-23T09:34:11.776Z,12364
2018-06-23T09:35:20.637Z,13080
2018-06-23T09:36:29.847Z,14224
2018-06-23T09:37:38.708Z,13136
2018-06-23T09:38:47.569Z,15376
2018-06-23T09:39:56.706Z,9324
2018-06-23T09:41:05.849Z,6240
2018-06-23T09:42:14.998Z,6976
2018-06-23T09:43:23.860Z,9788
2018-06-23T09:44:32.726Z,10136
2018-06-23T09:45:41.588Z,11224
2018-06-23T09:46:51.019Z,9616
2018-06-23T09:47:59.933Z,8412
2018-06-23T09:49:08.798Z,9112
2018-06-23T09:50:17.935Z,7932
2018-06-23T09:51:26.800Z,4988
2018-06-23T09:52:35.667Z,2924
2018-06-23T09:53:45.057Z,2696
2018-06-23T09:54:53.965Z,2316
2018-06-23T09:56:03.074Z,2480
2018-06-23T09:57:11.938Z,2504
2018-06-23T09:58:21.077Z,2836
2018-06-23T09:59:29.937Z,2160
2018-06-23T10:00:38.797Z,2336
2018-06-23T10:01:47.663Z,4532
2018-06-23T10:02:56.520Z,5352
2018-06-23T10:04:05.655Z,4400
2018-06-23T10:05:14.572Z,4384
2018-06-23T10:06:23.712Z,4116
2018-06-23T10:07:32.573Z,6028
2018-06-23T10:08:41.435Z,7384
2018-06-23T10:09:50.294Z,7236
2018-06-23T10:10:59.154Z,7104
2018-06-23T10:12:08.017Z,6640
2018-06-23T10:13:16.877Z,6556
2018-06-23T10:14:25.736Z,5376
2018-06-23T10:15:34.599Z,6244
2018-06-23T10:16:43.611Z,8044
2018-06-23T10:17:52.471Z,9248
2018-06-23T10:19:01.334Z,10412
2018-06-23T10:20:10.471Z,12084
2018-06-23T10:21:19.609Z,15656
2018-06-23T10:22:28.469Z,17824
2018-06-23T10:23:37.331Z,17984
2018-06-23T10:24:46.191Z,17856
2018-06-23T10:25:55.057Z,15032
2018-06-23T10:27:03.919Z,13792
2018-06-23T10:28:13.131Z,14160
2018-06-23T10:29:22.280Z,16280
2018-06-23T10:30:31.141Z,12176
2018-06-23T10:31:40.563Z,5596
2018-06-23T10:32:49.426Z,5400
2018-06-23T10:33:58.335Z,3796
2018-06-23T10:35:07.199Z,4548
2018-06-23T10:36:16.061Z,7108
2018-06-23T10:37:24.922Z,7216
2018-06-23T10:38:33.823Z,7284
2018-06-23T10:39:42.796Z,10220
2018-06-23T10:40:51.659Z,9648
2018-06-23T10:42:00.522Z,13832
2018-06-23T10:43:09.952Z,12128
2018-06-23T10:44:18.910Z,9624
2018-06-23T10:45:28.222Z,9208
2018-06-23T10:46:37.083Z,8380
2018-06-23T10:47:45.947Z,7388
2018-06-23T10:48:54.812Z,4892
2018-06-23T10:50:03.674Z,3136
2018-06-23T10:51:12.968Z,4988
2018-06-23T10:52:22.386Z,5252
2018-06-23T10:53:31.249Z,4564
2018-06-23T10:54:40.386Z,3964
2018-06-23T10:55:49.532Z,2592
2018-06-23T10:56:58.447Z,3104
2018-06-23T10:58:07.305Z,3356
2018-06-23T10:59:16.167Z,3668
2018-06-23T11:00:25.029Z,4396
2018-06-23T11:01:33.890Z,5376
2018-06-23T11:02:43.130Z,7132
2018-06-23T11:03:51.994Z,10216
2018-06-23T11:05:01.414Z,13352
2018-06-23T11:06:10.238Z,16344
2018-06-23T11:07:19.099Z,18624
2018-06-23T11:08:28.236Z,17632
2018-06-23T11:09:37.100Z,11100
2018-06-23T11:10:46.237Z,15456
2018-06-23T11:11:55.373Z,19328
2018-06-23T11:13:04.517Z,13116
2018-06-23T11:14:13.579Z,11856
2018-06-23T11:15:22.442Z,9664
2018-06-23T11:16:31.313Z,13728
2018-06-23T11:17:40.450Z,12028
2018-06-23T11:18:49.594Z,10072
2018-06-23T11:19:58.456Z,9316
2018-06-23T11:21:07.320Z,7320
2018-06-23T11:22:16.187Z,7268
2018-06-23T11:23:25.602Z,9592
2018-06-23T11:24:35.456Z,11900
2018-06-23T11:25:44.183Z,14244
2018-06-23T11:26:53.048Z,11764
2018-06-23T11:28:01.911Z,11824
2018-06-23T11:29:11.056Z,12820
2018-06-23T11:30:19.913Z,11236
2018-06-23T11:31:28.925Z,9568
2018-06-23T11:32:37.785Z,8876
2018-06-23T11:33:46.642Z,9924
2018-06-23T11:34:55.507Z,10544
2018-06-23T11:36:04.647Z,11228
2018-06-23T11:37:13.845Z,13580
2018-06-23T11:38:22.982Z,11500
2018-06-23T11:39:31.848Z,5856
2018-06-23T11:40:40.714Z,4944
2018-06-23T11:41:49.853Z,7092
2018-06-23T11:42:59.421Z,8880
2018-06-23T11:44:08.286Z,9260
2018-06-23T11:45:17.150Z,8116
2018-06-23T11:46:26.063Z,6276
2018-06-23T11:47:35.152Z,6504
2018-06-23T11:48:44.643Z,6884
2018-06-23T11:49:53.788Z,6820
2018-06-23T11:51:02.929Z,8952
2018-06-23T11:52:12.229Z,11256
2018-06-23T11:53:21.024Z,13040
2018-06-23T11:54:29.983Z,13920
2018-06-23T11:55:38.845Z,12240
2018-06-23T11:56:47.707Z,12296
2018-06-23T11:57:56.846Z,10992
2018-06-23T11:59:05.705Z,8916
2018-06-23T12:00:15.199Z,6724
2018-06-23T12:01:24.060Z,5416
2018-06-23T12:02:33.196Z,4176
2018-06-23T12:03:42.336Z,3404
2018-06-23T12:04:51.195Z,3592
2018-06-23T12:06:00.439Z,3320
2018-06-23T12:07:09.581Z,3160
2018-06-23T12:08:18.439Z,3456
2018-06-23T12:09:27.314Z,4592
2018-06-23T12:10:36.456Z,4976
2018-06-23T12:11:45.470Z,5556
2018-06-23T12:12:54.330Z,6748
2018-06-23T12:14:03.195Z,7412
2018-06-23T12:15:12.334Z,9780
2018-06-23T12:16:21.477Z,12108
2018-06-23T12:17:30.967Z,12868
2018-06-23T12:18:39.830Z,12248
2018-06-23T12:19:48.688Z,14148
2018-06-23T12:20:57.552Z,18432
2018-06-23T12:22:06.416Z,25504
2018-06-23T12:23:15.326Z,22944
2018-06-23T12:24:24.196Z,14956
2018-06-23T12:25:33.090Z,7780
2018-06-23T12:26:42.199Z,5372
2018-06-23T12:27:51.067Z,8112
2018-06-23T12:28:59.978Z,9612
2018-06-23T12:30:08.841Z,8972
2018-06-23T12:31:17.705Z,10620
2018-06-23T12:32:26.569Z,12784
2018-06-23T12:33:35.709Z,12896
2018-06-23T12:34:44.672Z,12220
2018-06-23T12:35:53.534Z,9688
2018-06-23T12:37:02.672Z,6120
2018-06-23T12:38:11.536Z,5676
2018-06-23T12:39:20.401Z,7856
2018-06-23T12:40:29.414Z,7428
2018-06-23T12:41:38.369Z,6700
2018-06-23T12:42:47.556Z,5792
2018-06-23T12:43:56.417Z,5476
2018-06-23T12:45:05.556Z,5824
2018-06-23T12:46:14.417Z,5868
2018-06-23T12:47:23.278Z,6928
2018-06-23T12:48:32.466Z,6816
2018-06-23T12:49:41.306Z,6616
2018-06-23T12:50:50.169Z,6892
2018-06-23T12:51:59.460Z,8048
2018-06-23T12:53:08.322Z,9404
2018-06-23T12:54:17.460Z,10860
2018-06-23T12:55:26.397Z,11964
2018-06-23T12:56:35.251Z,11144
2018-06-23T12:57:44.465Z,11116
2018-06-23T12:58:53.662Z,14052
2018-06-23T13:00:02.522Z,17408
2018-06-23T13:01:11.673Z,18560
2018-06-23T13:02:20.538Z,19712
2018-06-23T13:03:29.750Z,18752
2018-06-23T13:04:38.612Z,13196
2018-06-23T13:05:47.475Z,12656
2018-06-23T13:06:56.617Z,9108
2018-06-23T13:08:05.477Z,5140
2018-06-23T13:09:14.665Z,6160
2018-06-23T13:10:23.529Z,8896
2018-06-23T13:11:32.677Z,6200
2018-06-23T13:12:41.533Z,6608
2018-06-23T13:13:50.950Z,10388
2018-06-23T13:15:00.366Z,8596
2018-06-23T13:16:09.508Z,8264
2018-06-23T13:17:18.365Z,6708
2018-06-23T13:18:27.228Z,7000
2018-06-23T13:19:36.372Z,6512
2018-06-23T13:20:45.284Z,6332
2018-06-23T13:21:54.146Z,5376
2018-06-23T13:23:03.008Z,4320
2018-06-23T13:24:11.875Z,3152
2018-06-23T13:25:21.290Z,2552
2018-06-23T13:26:30.497Z,2404
2018-06-23T13:27:39.662Z,2560
2018-06-23T13:28:48.798Z,3588
2018-06-23T13:29:57.662Z,4592
2018-06-23T13:31:06.524Z,5996
2018-06-23T13:32:15.437Z,8612
2018-06-23T13:33:25.155Z,10484
2018-06-23T13:34:34.291Z,12068
2018-06-23T13:35:43.153Z,8744
2018-06-23T13:36:52.292Z,9484
2018-06-23T13:38:01.204Z,7248
2018-06-23T13:39:10.069Z,6356
2018-06-23T13:40:18.932Z,8768
2018-06-23T13:41:27.792Z,11392
2018-06-23T13:42:36.937Z,14948
2018-06-23T13:43:45.852Z,17280
2018-06-23T13:44:54.718Z,19008
2018-06-23T13:46:03.859Z,18144
2018-06-23T13:47:12.799Z,20320
2018-06-23T13:48:22.034Z,23520
2018-06-23T13:49:31.272Z,20544
2018-06-23T13:50:40.141Z,18464
2018-06-23T13:51:49.275Z,15992
2018-06-23T13:52:58.140Z,20704
2018-06-23T13:54:07.003Z,24768
2018-06-23T13:55:15.968Z,25536
2018-06-23T13:56:24.832Z,25824
2018-06-23T13:57:33.974Z,13872
2018-06-23T13:58:42.835Z,7968
2018-06-23T13:59:51.699Z,7628
2018-06-23T14:01:01.011Z,12420
2018-06-23T14:02:09.873Z,10516
2018-06-23T14:03:19.338Z,21312
2018-06-23T14:04:28.589Z,27712
2018-06-23T14:05:37.727Z,22400
2018-06-23T14:06:46.591Z,17888
2018-06-23T14:07:55.455Z,21344
2018-06-23T14:09:04.608Z,24352
2018-06-23T14:10:14.030Z,18464
2018-06-23T14:11:22.894Z,12180
2018-06-23T14:12:32.222Z,11328
2018-06-23T14:13:41.400Z,17344
2018-06-23T14:14:50.685Z,20320
2018-06-23T14:15:59.468Z,42272
2018-06-23T14:17:08.332Z,45184
2018-06-23T14:18:17.347Z,57088
2018-06-23T14:19:26.502Z,43808
2018-06-23T14:20:35.643Z,19040
2018-06-23T14:21:44.848Z,16068
2018-06-23T14:22:53.679Z,14700
2018-06-23T14:24:02.642Z,15432
2018-06-23T14:25:11.507Z,15776
2018-06-23T14:26:20.378Z,14532
2018-06-23T14:27:29.243Z,10024
2018-06-23T14:28:38.106Z,12484
2018-06-23T14:29:47.072Z,12176
2018-06-23T14:30:56.498Z,16960
2018-06-23T14:32:07.415Z,15860
2018-06-23T14:33:17.733Z,10980
2018-06-23T14:34:26.597Z,7772
2018-06-23T14:35:35.515Z,7248
2018-06-23T14:36:44.379Z,7616
2018-06-23T14:37:53.241Z,5608
2018-06-23T14:39:02.104Z,6312
2018-06-23T14:40:11.598Z,6868
2018-06-23T14:41:20.890Z,6580
2018-06-23T14:42:29.753Z,5088
2018-06-23T14:43:38.618Z,5288
2018-06-23T14:44:47.760Z,8272
2018-06-23T14:45:56.623Z,9616
2018-06-23T14:47:05.814Z,10652
2018-06-23T14:48:15.554Z,10036
2018-06-23T14:49:24.420Z,9292
2018-06-23T14:50:33.283Z,9108
2018-06-23T14:51:42.420Z,9108
2018-06-23T14:52:51.637Z,10168
2018-06-23T14:54:00.775Z,9984
2018-06-23T14:55:09.924Z,9340
2018-06-23T14:56:18.789Z,8188
2018-06-23T14:57:27.649Z,10248
2018-06-23T14:58:36.511Z,10076
2018-06-23T14:59:45.790Z,6588
2018-06-23T15:00:54.653Z,7712
2018-06-23T15:02:03.514Z,9916
2018-06-23T15:03:12.652Z,8324
2018-06-23T15:04:21.615Z,6848
2018-06-23T15:05:30.478Z,6472
2018-06-23T15:06:39.340Z,6580
2018-06-23T15:07:48.202Z,6420
2018-06-23T15:08:57.060Z,6432
2018-06-23T15:10:06.075Z,4652
2018-06-23T15:11:14.941Z,6656
2018-06-23T15:12:24.081Z,7600
2018-06-23T15:13:33.218Z,8664
2018-06-23T15:14:42.078Z,7156
2018-06-23T15:15:51.290Z,6156
2018-06-23T15:17:00.154Z,6308
2018-06-23T15:18:09.016Z,5664
2018-06-23T15:19:17.881Z,5684
2018-06-23T15:20:27.294Z,5676
2018-06-23T15:21:36.204Z,7148
2018-06-23T15:22:45.065Z,7884
2018-06-23T15:23:54.204Z,8336
2018-06-23T15:25:03.069Z,8700
2018-06-23T15:26:12.033Z,7368
2018-06-23T15:27:20.994Z,6580
2018-06-23T15:28:29.855Z,7224
2018-06-23T15:29:39.001Z,6992
2018-06-23T15:30:47.855Z,6744
2018-06-23T15:31:57.003Z,6016
2018-06-23T15:33:05.913Z,5560